sensor_id;sensor_type;location;lat;lon;timestamp;P1;durP1;ratioP1;P2;durP2;ratioP2
31306;SDS011;17935;51.120;13.132;2023-02-18T00:01:09;14.63;;;9.47;;
31306;SDS011;17935;51.120;13.132;2023-02-18T00:03:35;14.50;;;8.97;;
31306;SDS011;17935;51.120;13.132;2023-02-18T00:06:08;13.52;;;8.88;;
31306;SDS011;17935;51.120;13.132;2023-02-18T00:08:34;12.43;;;9.10;;
31306;SDS011;17935;51.120;13.132;2023-02-18T00:11:00;13.30;;;8.60;;
31306;SDS011;17935;51.120;13.132;2023-02-18T00:13:26;15.52;;;8.63;;
31306;SDS011;17935;51.120;13.132;2023-02-18T00:15:52;10.60;;;8.00;;
31306;SDS011;17935;51.120;13.132;2023-02-18T00:18:18;12.43;;;8.57;;
31306;SDS011;17935;51.120;13.132;2023-02-18T00:20:44;15.07;;;8.10;;
31306;SDS011;17935;51.120;13.132;2023-02-18T00:23:10;12.70;;;7.55;;
31306;SDS011;17935;51.120;13.132;2023-02-18T00:25:36;11.68;;;7.05;;
31306;SDS011;17935;51.120;13.132;2023-02-18T00:28:02;12.50;;;5.78;;
31306;SDS011;17935;51.120;13.132;2023-02-18T00:30:27;13.13;;;6.20;;
31306;SDS011;17935;51.120;13.132;2023-02-18T00:32:53;8.55;;;5.30;;
31306;SDS011;17935;51.120;13.132;2023-02-18T00:35:19;12.45;;;5.35;;
31306;SDS011;17935;51.120;13.132;2023-02-18T00:37:45;10.15;;;4.40;;
31306;SDS011;17935;51.120;13.132;2023-02-18T00:40:11;11.30;;;3.80;;
31306;SDS011;17935;51.120;13.132;2023-02-18T00:42:37;8.80;;;3.75;;
31306;SDS011;17935;51.120;13.132;2023-02-18T00:45:03;9.80;;;3.90;;
31306;SDS011;17935;51.120;13.132;2023-02-18T00:47:29;10.55;;;3.47;;
31306;SDS011;17935;51.120;13.132;2023-02-18T00:49:55;9.50;;;3.40;;
31306;SDS011;17935;51.120;13.132;2023-02-18T00:52:21;9.40;;;3.07;;
31306;SDS011;17935;51.120;13.132;2023-02-18T00:54:47;7.20;;;2.75;;
31306;SDS011;17935;51.120;13.132;2023-02-18T00:57:13;9.00;;;2.90;;
31306;SDS011;17935;51.120;13.132;2023-02-18T00:59:39;8.57;;;2.50;;
31306;SDS011;17935;51.120;13.132;2023-02-18T01:02:04;9.10;;;2.43;;
31306;SDS011;17935;51.120;13.132;2023-02-18T01:04:31;5.50;;;2.65;;
31306;SDS011;17935;51.120;13.132;2023-02-18T01:06:57;8.38;;;2.40;;
31306;SDS011;17935;51.120;13.132;2023-02-18T01:09:23;6.45;;;2.10;;
31306;SDS011;17935;51.120;13.132;2023-02-18T01:11:49;8.65;;;2.42;;
31306;SDS011;17935;51.120;13.132;2023-02-18T01:14:15;10.87;;;2.40;;
31306;SDS011;17935;51.120;13.132;2023-02-18T01:16:41;6.07;;;2.00;;
31306;SDS011;17935;51.120;13.132;2023-02-18T01:19:07;7.68;;;1.70;;
31306;SDS011;17935;51.120;13.132;2023-02-18T01:21:33;8.43;;;2.20;;
31306;SDS011;17935;51.120;13.132;2023-02-18T01:23:59;5.13;;;1.92;;
31306;SDS011;17935;51.120;13.132;2023-02-18T01:26:25;7.33;;;1.70;;
31306;SDS011;17935;51.120;13.132;2023-02-18T01:28:51;9.02;;;2.45;;
31306;SDS011;17935;51.120;13.132;2023-02-18T01:31:17;10.77;;;2.17;;
31306;SDS011;17935;51.120;13.132;2023-02-18T01:33:43;7.60;;;2.38;;
31306;SDS011;17935;51.120;13.132;2023-02-18T01:36:09;8.40;;;2.20;;
31306;SDS011;17935;51.120;13.132;2023-02-18T01:38:35;9.15;;;2.45;;
31306;SDS011;17935;51.120;13.132;2023-02-18T01:41:01;7.97;;;2.10;;
31306;SDS011;17935;51.120;13.132;2023-02-18T01:43:27;8.03;;;2.27;;
31306;SDS011;17935;51.120;13.132;2023-02-18T01:51:33;8.63;;;2.10;;
31306;SDS011;17935;51.120;13.132;2023-02-18T01:56:33;8.70;;;2.33;;
31306;SDS011;17935;51.120;13.132;2023-02-18T01:59:01;13.55;;;2.60;;
31306;SDS011;17935;51.120;13.132;2023-02-18T02:01:28;10.95;;;2.50;;
31306;SDS011;17935;51.120;13.132;2023-02-18T02:03:55;8.50;;;2.40;;
31306;SDS011;17935;51.120;13.132;2023-02-18T02:06:22;8.68;;;2.03;;
31306;SDS011;17935;51.120;13.132;2023-02-18T02:08:48;6.45;;;2.22;;
31306;SDS011;17935;51.120;13.132;2023-02-18T02:11:38;7.65;;;2.38;;
31306;SDS011;17935;51.120;13.132;2023-02-18T02:14:12;7.78;;;2.28;;
31306;SDS011;17935;51.120;13.132;2023-02-18T02:16:49;7.55;;;2.65;;
31306;SDS011;17935;51.120;13.132;2023-02-18T02:22:49;7.80;;;2.10;;
31306;SDS011;17935;51.120;13.132;2023-02-18T02:25:18;8.02;;;1.75;;
31306;SDS011;17935;51.120;13.132;2023-02-18T02:27:55;9.57;;;2.45;;
31306;SDS011;17935;51.120;13.132;2023-02-18T02:30:37;8.32;;;2.17;;
31306;SDS011;17935;51.120;13.132;2023-02-18T02:33:13;11.00;;;2.45;;
31306;SDS011;17935;51.120;13.132;2023-02-18T02:36:02;9.15;;;2.60;;
31306;SDS011;17935;51.120;13.132;2023-02-18T02:43:43;11.77;;;2.83;;
31306;SDS011;17935;51.120;13.132;2023-02-18T02:46:24;11.43;;;3.20;;
31306;SDS011;17935;51.120;13.132;2023-02-18T02:51:40;9.70;;;2.80;;
31306;SDS011;17935;51.120;13.132;2023-02-18T02:54:09;11.23;;;2.58;;
31306;SDS011;17935;51.120;13.132;2023-02-18T02:56:35;7.72;;;2.40;;
31306;SDS011;17935;51.120;13.132;2023-02-18T02:59:02;10.07;;;2.40;;
31306;SDS011;17935;51.120;13.132;2023-02-18T03:01:34;13.18;;;2.80;;
31306;SDS011;17935;51.120;13.132;2023-02-18T03:04:08;15.88;;;3.05;;
31306;SDS011;17935;51.120;13.132;2023-02-18T03:06:42;12.60;;;2.50;;
31306;SDS011;17935;51.120;13.132;2023-02-18T03:09:15;9.30;;;2.37;;
31306;SDS011;17935;51.120;13.132;2023-02-18T03:11:49;11.30;;;2.97;;
31306;SDS011;17935;51.120;13.132;2023-02-18T03:14:21;13.20;;;3.05;;
31306;SDS011;17935;51.120;13.132;2023-02-18T03:16:52;15.05;;;2.70;;
31306;SDS011;17935;51.120;13.132;2023-02-18T03:21:59;11.30;;;2.70;;
31306;SDS011;17935;51.120;13.132;2023-02-18T03:24:31;12.15;;;2.85;;
31306;SDS011;17935;51.120;13.132;2023-02-18T03:26:58;8.63;;;2.83;;
31306;SDS011;17935;51.120;13.132;2023-02-18T03:29:26;8.70;;;2.85;;
31306;SDS011;17935;51.120;13.132;2023-02-18T03:31:54;12.15;;;3.60;;
31306;SDS011;17935;51.120;13.132;2023-02-18T03:34:29;10.63;;;3.13;;
31306;SDS011;17935;51.120;13.132;2023-02-18T03:36:56;14.82;;;4.38;;
31306;SDS011;17935;51.120;13.132;2023-02-18T03:39:22;18.65;;;5.63;;
31306;SDS011;17935;51.120;13.132;2023-02-18T03:41:50;12.95;;;4.57;;
31306;SDS011;17935;51.120;13.132;2023-02-18T03:44:16;12.20;;;5.03;;
31306;SDS011;17935;51.120;13.132;2023-02-18T03:46:42;15.15;;;4.75;;
31306;SDS011;17935;51.120;13.132;2023-02-18T03:49:12;10.47;;;4.87;;
31306;SDS011;17935;51.120;13.132;2023-02-18T03:51:38;11.40;;;4.85;;
31306;SDS011;17935;51.120;13.132;2023-02-18T03:54:04;14.85;;;4.90;;
31306;SDS011;17935;51.120;13.132;2023-02-18T03:56:30;13.55;;;4.82;;
31306;SDS011;17935;51.120;13.132;2023-02-18T03:58:56;13.10;;;4.47;;
31306;SDS011;17935;51.120;13.132;2023-02-18T04:01:22;16.60;;;5.45;;
31306;SDS011;17935;51.120;13.132;2023-02-18T04:03:48;12.77;;;4.50;;
31306;SDS011;17935;51.120;13.132;2023-02-18T04:06:14;12.77;;;4.97;;
31306;SDS011;17935;51.120;13.132;2023-02-18T04:08:41;13.10;;;4.30;;
31306;SDS011;17935;51.120;13.132;2023-02-18T04:11:07;14.33;;;4.67;;
31306;SDS011;17935;51.120;13.132;2023-02-18T04:13:33;14.38;;;4.47;;
31306;SDS011;17935;51.120;13.132;2023-02-18T04:15:59;11.27;;;3.53;;
31306;SDS011;17935;51.120;13.132;2023-02-18T04:18:25;14.57;;;3.55;;
31306;SDS011;17935;51.120;13.132;2023-02-18T04:20:51;12.25;;;3.80;;
31306;SDS011;17935;51.120;13.132;2023-02-18T04:23:16;10.30;;;3.80;;
31306;SDS011;17935;51.120;13.132;2023-02-18T04:25:42;14.88;;;4.05;;
31306;SDS011;17935;51.120;13.132;2023-02-18T04:28:09;15.05;;;4.07;;
31306;SDS011;17935;51.120;13.132;2023-02-18T04:30:37;13.98;;;4.25;;
31306;SDS011;17935;51.120;13.132;2023-02-18T04:33:03;11.07;;;4.13;;
31306;SDS011;17935;51.120;13.132;2023-02-18T04:35:29;12.55;;;4.53;;
31306;SDS011;17935;51.120;13.132;2023-02-18T04:37:55;14.43;;;4.55;;
31306;SDS011;17935;51.120;13.132;2023-02-18T04:40:20;14.90;;;4.97;;
31306;SDS011;17935;51.120;13.132;2023-02-18T04:42:49;11.48;;;4.60;;
31306;SDS011;17935;51.120;13.132;2023-02-18T04:45:15;17.55;;;5.70;;
31306;SDS011;17935;51.120;13.132;2023-02-18T04:47:41;15.67;;;5.30;;
31306;SDS011;17935;51.120;13.132;2023-02-18T04:50:07;19.17;;;6.55;;
31306;SDS011;17935;51.120;13.132;2023-02-18T04:52:32;18.55;;;6.10;;
31306;SDS011;17935;51.120;13.132;2023-02-18T04:54:58;15.73;;;6.53;;
31306;SDS011;17935;51.120;13.132;2023-02-18T04:57:24;20.92;;;6.72;;
31306;SDS011;17935;51.120;13.132;2023-02-18T04:59:50;15.77;;;6.83;;
31306;SDS011;17935;51.120;13.132;2023-02-18T05:02:16;14.05;;;7.50;;
31306;SDS011;17935;51.120;13.132;2023-02-18T05:04:42;20.83;;;7.95;;
31306;SDS011;17935;51.120;13.132;2023-02-18T05:07:08;24.10;;;7.75;;
31306;SDS011;17935;51.120;13.132;2023-02-18T05:09:34;18.60;;;9.17;;
31306;SDS011;17935;51.120;13.132;2023-02-18T05:12:00;19.20;;;9.13;;
31306;SDS011;17935;51.120;13.132;2023-02-18T05:14:26;22.20;;;9.55;;
31306;SDS011;17935;51.120;13.132;2023-02-18T05:16:52;18.67;;;10.05;;
31306;SDS011;17935;51.120;13.132;2023-02-18T05:19:17;19.98;;;10.65;;
31306;SDS011;17935;51.120;13.132;2023-02-18T05:21:43;19.30;;;11.20;;
31306;SDS011;17935;51.120;13.132;2023-02-18T05:24:09;22.63;;;12.23;;
31306;SDS011;17935;51.120;13.132;2023-02-18T05:26:35;18.00;;;11.68;;
31306;SDS011;17935;51.120;13.132;2023-02-18T05:29:01;17.70;;;11.07;;
31306;SDS011;17935;51.120;13.132;2023-02-18T05:31:27;19.15;;;11.23;;
31306;SDS011;17935;51.120;13.132;2023-02-18T05:33:54;22.48;;;11.85;;
31306;SDS011;17935;51.120;13.132;2023-02-18T05:36:19;22.95;;;11.65;;
31306;SDS011;17935;51.120;13.132;2023-02-18T05:38:45;20.15;;;10.70;;
31306;SDS011;17935;51.120;13.132;2023-02-18T05:41:11;20.37;;;10.67;;
31306;SDS011;17935;51.120;13.132;2023-02-18T05:43:37;18.13;;;11.25;;
31306;SDS011;17935;51.120;13.132;2023-02-18T05:46:23;19.95;;;11.50;;
31306;SDS011;17935;51.120;13.132;2023-02-18T05:48:49;23.60;;;11.27;;
31306;SDS011;17935;51.120;13.132;2023-02-18T05:51:15;18.60;;;11.30;;
31306;SDS011;17935;51.120;13.132;2023-02-18T05:53:41;20.70;;;11.95;;
31306;SDS011;17935;51.120;13.132;2023-02-18T05:56:07;24.02;;;12.40;;
31306;SDS011;17935;51.120;13.132;2023-02-18T05:58:33;19.93;;;12.60;;
31306;SDS011;17935;51.120;13.132;2023-02-18T06:00:59;19.60;;;12.43;;
31306;SDS011;17935;51.120;13.132;2023-02-18T06:03:25;24.08;;;14.70;;
31306;SDS011;17935;51.120;13.132;2023-02-18T06:05:51;24.05;;;14.45;;
31306;SDS011;17935;51.120;13.132;2023-02-18T06:08:17;21.55;;;14.35;;
31306;SDS011;17935;51.120;13.132;2023-02-18T06:10:46;26.10;;;14.32;;
31306;SDS011;17935;51.120;13.132;2023-02-18T06:13:12;24.50;;;13.93;;
31306;SDS011;17935;51.120;13.132;2023-02-18T06:15:38;25.70;;;14.57;;
31306;SDS011;17935;51.120;13.132;2023-02-18T06:18:04;23.95;;;14.70;;
31306;SDS011;17935;51.120;13.132;2023-02-18T06:20:30;22.88;;;14.10;;
31306;SDS011;17935;51.120;13.132;2023-02-18T06:22:56;23.90;;;14.45;;
31306;SDS011;17935;51.120;13.132;2023-02-18T06:25:22;22.35;;;13.60;;
31306;SDS011;17935;51.120;13.132;2023-02-18T06:27:48;20.83;;;13.15;;
31306;SDS011;17935;51.120;13.132;2023-02-18T06:30:14;21.43;;;13.90;;
31306;SDS011;17935;51.120;13.132;2023-02-18T06:32:39;21.67;;;13.82;;
31306;SDS011;17935;51.120;13.132;2023-02-18T06:35:05;21.55;;;13.75;;
31306;SDS011;17935;51.120;13.132;2023-02-18T06:37:31;22.90;;;14.35;;
31306;SDS011;17935;51.120;13.132;2023-02-18T06:39:57;22.65;;;13.55;;
31306;SDS011;17935;51.120;13.132;2023-02-18T06:42:23;21.73;;;13.50;;
31306;SDS011;17935;51.120;13.132;2023-02-18T06:44:49;24.55;;;14.77;;
31306;SDS011;17935;51.120;13.132;2023-02-18T06:47:15;22.80;;;13.85;;
31306;SDS011;17935;51.120;13.132;2023-02-18T06:49:41;20.75;;;14.25;;
31306;SDS011;17935;51.120;13.132;2023-02-18T06:52:07;23.65;;;14.40;;
31306;SDS011;17935;51.120;13.132;2023-02-18T06:54:33;19.13;;;13.63;;
31306;SDS011;17935;51.120;13.132;2023-02-18T06:56:59;21.42;;;14.15;;
31306;SDS011;17935;51.120;13.132;2023-02-18T06:59:25;21.88;;;14.45;;
31306;SDS011;17935;51.120;13.132;2023-02-18T07:01:51;20.63;;;13.73;;
31306;SDS011;17935;51.120;13.132;2023-02-18T07:04:17;19.20;;;13.73;;
31306;SDS011;17935;51.120;13.132;2023-02-18T07:06:43;21.08;;;14.35;;
31306;SDS011;17935;51.120;13.132;2023-02-18T07:09:09;21.48;;;13.85;;
31306;SDS011;17935;51.120;13.132;2023-02-18T07:11:35;21.42;;;14.27;;
31306;SDS011;17935;51.120;13.132;2023-02-18T07:14:01;21.43;;;14.90;;
31306;SDS011;17935;51.120;13.132;2023-02-18T07:16:27;25.48;;;14.10;;
31306;SDS011;17935;51.120;13.132;2023-02-18T07:18:52;26.65;;;14.88;;
31306;SDS011;17935;51.120;13.132;2023-02-18T07:21:18;22.30;;;14.60;;
31306;SDS011;17935;51.120;13.132;2023-02-18T07:23:44;22.83;;;14.10;;
31306;SDS011;17935;51.120;13.132;2023-02-18T07:26:12;23.35;;;14.23;;
31306;SDS011;17935;51.120;13.132;2023-02-18T07:28:38;22.42;;;14.63;;
31306;SDS011;17935;51.120;13.132;2023-02-18T07:31:04;20.95;;;14.20;;
31306;SDS011;17935;51.120;13.132;2023-02-18T07:33:30;21.17;;;14.88;;
31306;SDS011;17935;51.120;13.132;2023-02-18T07:35:57;25.75;;;15.93;;
31306;SDS011;17935;51.120;13.132;2023-02-18T07:38:23;20.67;;;14.73;;
31306;SDS011;17935;51.120;13.132;2023-02-18T07:40:50;17.88;;;12.98;;
31306;SDS011;17935;51.120;13.132;2023-02-18T07:43:16;20.55;;;14.02;;
31306;SDS011;17935;51.120;13.132;2023-02-18T07:45:42;17.93;;;13.77;;
31306;SDS011;17935;51.120;13.132;2023-02-18T07:48:08;20.20;;;13.68;;
31306;SDS011;17935;51.120;13.132;2023-02-18T07:50:34;16.85;;;13.23;;
31306;SDS011;17935;51.120;13.132;2023-02-18T07:53:02;16.48;;;12.50;;
31306;SDS011;17935;51.120;13.132;2023-02-18T07:55:28;14.68;;;11.25;;
31306;SDS011;17935;51.120;13.132;2023-02-18T07:58:13;13.80;;;10.63;;
31306;SDS011;17935;51.120;13.132;2023-02-18T08:00:38;11.27;;;9.43;;
31306;SDS011;17935;51.120;13.132;2023-02-18T08:03:04;11.23;;;8.88;;
31306;SDS011;17935;51.120;13.132;2023-02-18T08:05:30;9.13;;;8.02;;
31306;SDS011;17935;51.120;13.132;2023-02-18T08:07:56;8.77;;;7.80;;
31306;SDS011;17935;51.120;13.132;2023-02-18T08:10:22;7.78;;;6.03;;
31306;SDS011;17935;51.120;13.132;2023-02-18T08:12:48;7.00;;;5.97;;
31306;SDS011;17935;51.120;13.132;2023-02-18T08:15:14;8.60;;;6.40;;
31306;SDS011;17935;51.120;13.132;2023-02-18T08:17:40;7.88;;;6.03;;
31306;SDS011;17935;51.120;13.132;2023-02-18T08:20:06;7.15;;;5.68;;
31306;SDS011;17935;51.120;13.132;2023-02-18T08:22:33;5.57;;;4.97;;
31306;SDS011;17935;51.120;13.132;2023-02-18T08:24:59;5.40;;;4.85;;
31306;SDS011;17935;51.120;13.132;2023-02-18T08:27:25;7.00;;;4.82;;
31306;SDS011;17935;51.120;13.132;2023-02-18T08:29:51;4.72;;;3.92;;
31306;SDS011;17935;51.120;13.132;2023-02-18T08:32:17;4.55;;;4.15;;
31306;SDS011;17935;51.120;13.132;2023-02-18T08:34:43;4.50;;;3.65;;
31306;SDS011;17935;51.120;13.132;2023-02-18T08:37:09;5.55;;;3.72;;
31306;SDS011;17935;51.120;13.132;2023-02-18T08:39:35;5.85;;;3.58;;
31306;SDS011;17935;51.120;13.132;2023-02-18T08:42:02;3.97;;;2.90;;
31306;SDS011;17935;51.120;13.132;2023-02-18T08:44:28;3.03;;;2.50;;
31306;SDS011;17935;51.120;13.132;2023-02-18T08:46:53;3.47;;;2.40;;
31306;SDS011;17935;51.120;13.132;2023-02-18T08:49:19;2.28;;;1.98;;
31306;SDS011;17935;51.120;13.132;2023-02-18T08:51:48;3.05;;;1.92;;
31306;SDS011;17935;51.120;13.132;2023-02-18T08:54:14;2.90;;;2.30;;
31306;SDS011;17935;51.120;13.132;2023-02-18T08:56:39;2.75;;;1.80;;
31306;SDS011;17935;51.120;13.132;2023-02-18T08:59:05;3.43;;;2.10;;
31306;SDS011;17935;51.120;13.132;2023-02-18T09:01:31;2.70;;;2.08;;
31306;SDS011;17935;51.120;13.132;2023-02-18T09:03:57;2.58;;;2.10;;
31306;SDS011;17935;51.120;13.132;2023-02-18T09:06:23;3.90;;;2.42;;
31306;SDS011;17935;51.120;13.132;2023-02-18T09:08:49;5.10;;;2.10;;
31306;SDS011;17935;51.120;13.132;2023-02-18T09:11:16;2.72;;;2.53;;
31306;SDS011;17935;51.120;13.132;2023-02-18T09:13:42;3.55;;;2.50;;
31306;SDS011;17935;51.120;13.132;2023-02-18T09:16:10;4.50;;;2.50;;
31306;SDS011;17935;51.120;13.132;2023-02-18T09:18:37;5.47;;;2.40;;
31306;SDS011;17935;51.120;13.132;2023-02-18T09:21:03;4.53;;;2.47;;
31306;SDS011;17935;51.120;13.132;2023-02-18T09:23:30;3.50;;;2.50;;
31306;SDS011;17935;51.120;13.132;2023-02-18T09:25:56;4.22;;;2.80;;
31306;SDS011;17935;51.120;13.132;2023-02-18T09:28:22;3.55;;;2.85;;
31306;SDS011;17935;51.120;13.132;2023-02-18T09:30:48;4.03;;;2.95;;
31306;SDS011;17935;51.120;13.132;2023-02-18T09:33:14;5.30;;;3.20;;
31306;SDS011;17935;51.120;13.132;2023-02-18T09:35:41;4.28;;;2.80;;
31306;SDS011;17935;51.120;13.132;2023-02-18T09:38:08;4.00;;;2.50;;
31306;SDS011;17935;51.120;13.132;2023-02-18T09:40:36;3.30;;;3.00;;
31306;SDS011;17935;51.120;13.132;2023-02-18T09:43:02;5.10;;;3.00;;
31306;SDS011;17935;51.120;13.132;2023-02-18T09:45:29;3.45;;;2.90;;
31306;SDS011;17935;51.120;13.132;2023-02-18T09:47:55;3.60;;;3.10;;
31306;SDS011;17935;51.120;13.132;2023-02-18T09:50:23;3.42;;;3.13;;
31306;SDS011;17935;51.120;13.132;2023-02-18T09:52:50;3.75;;;2.83;;
31306;SDS011;17935;51.120;13.132;2023-02-18T09:57:55;4.47;;;3.13;;
31306;SDS011;17935;51.120;13.132;2023-02-18T10:03:24;4.40;;;2.40;;
31306;SDS011;17935;51.120;13.132;2023-02-18T10:08:27;4.45;;;3.40;;
31306;SDS011;17935;51.120;13.132;2023-02-18T10:10:54;3.55;;;3.25;;
31306;SDS011;17935;51.120;13.132;2023-02-18T10:13:21;3.40;;;2.77;;
31306;SDS011;17935;51.120;13.132;2023-02-18T10:15:47;3.10;;;2.80;;
31306;SDS011;17935;51.120;13.132;2023-02-18T10:18:20;4.85;;;2.63;;
31306;SDS011;17935;51.120;13.132;2023-02-18T10:20:46;4.07;;;2.70;;
31306;SDS011;17935;51.120;13.132;2023-02-18T10:23:12;3.65;;;2.47;;
31306;SDS011;17935;51.120;13.132;2023-02-18T10:25:41;2.50;;;1.88;;
31306;SDS011;17935;51.120;13.132;2023-02-18T10:28:08;3.10;;;1.95;;
31306;SDS011;17935;51.120;13.132;2023-02-18T10:30:36;2.33;;;1.30;;
31306;SDS011;17935;51.120;13.132;2023-02-18T10:33:14;2.53;;;1.50;;
31306;SDS011;17935;51.120;13.132;2023-02-18T10:35:48;2.22;;;1.58;;
31306;SDS011;17935;51.120;13.132;2023-02-18T10:41:14;1.20;;;1.10;;
31306;SDS011;17935;51.120;13.132;2023-02-18T10:48:45;2.10;;;1.07;;
31306;SDS011;17935;51.120;13.132;2023-02-18T10:51:20;1.63;;;0.98;;
31306;SDS011;17935;51.120;13.132;2023-02-18T10:53:47;1.25;;;0.90;;
31306;SDS011;17935;51.120;13.132;2023-02-18T10:59:12;1.40;;;1.00;;
31306;SDS011;17935;51.120;13.132;2023-02-18T11:01:39;0.90;;;0.65;;
31306;SDS011;17935;51.120;13.132;2023-02-18T11:04:11;0.73;;;0.73;;
31306;SDS011;17935;51.120;13.132;2023-02-18T11:06:39;0.98;;;0.80;;
31306;SDS011;17935;51.120;13.132;2023-02-18T11:09:05;1.90;;;0.90;;
31306;SDS011;17935;51.120;13.132;2023-02-18T11:11:35;0.65;;;0.65;;
31306;SDS011;17935;51.120;13.132;2023-02-18T11:14:03;2.20;;;0.90;;
31306;SDS011;17935;51.120;13.132;2023-02-18T11:16:43;0.60;;;0.60;;
31306;SDS011;17935;51.120;13.132;2023-02-18T11:21:56;0.70;;;0.70;;
31306;SDS011;17935;51.120;13.132;2023-02-18T11:24:30;0.90;;;0.80;;
31306;SDS011;17935;51.120;13.132;2023-02-18T11:26:56;1.00;;;0.70;;
31306;SDS011;17935;51.120;13.132;2023-02-18T11:29:23;1.60;;;0.70;;
31306;SDS011;17935;51.120;13.132;2023-02-18T11:31:51;0.70;;;0.70;;
31306;SDS011;17935;51.120;13.132;2023-02-18T11:34:19;0.68;;;0.68;;
31306;SDS011;17935;51.120;13.132;2023-02-18T11:36:46;0.80;;;0.80;;
31306;SDS011;17935;51.120;13.132;2023-02-18T11:39:20;0.60;;;0.60;;
31306;SDS011;17935;51.120;13.132;2023-02-18T11:41:47;0.70;;;0.70;;
31306;SDS011;17935;51.120;13.132;2023-02-18T11:44:18;1.70;;;0.80;;
31306;SDS011;17935;51.120;13.132;2023-02-18T11:46:55;1.27;;;0.90;;
31306;SDS011;17935;51.120;13.132;2023-02-18T11:49:22;0.87;;;0.87;;
31306;SDS011;17935;51.120;13.132;2023-02-18T11:51:49;1.27;;;0.80;;
31306;SDS011;17935;51.120;13.132;2023-02-18T11:54:22;0.93;;;0.93;;
31306;SDS011;17935;51.120;13.132;2023-02-18T11:57:02;0.90;;;0.85;;
31306;SDS011;17935;51.120;13.132;2023-02-18T11:59:31;1.05;;;0.80;;
31306;SDS011;17935;51.120;13.132;2023-02-18T12:04:32;1.10;;;1.00;;
31306;SDS011;17935;51.120;13.132;2023-02-18T12:09:34;2.72;;;2.10;;
31306;SDS011;17935;51.120;13.132;2023-02-18T12:12:05;2.40;;;1.60;;
31306;SDS011;17935;51.120;13.132;2023-02-18T12:14:32;2.50;;;1.33;;
31306;SDS011;17935;51.120;13.132;2023-02-18T12:17:05;1.80;;;1.40;;
31306;SDS011;17935;51.120;13.132;2023-02-18T12:23:04;2.80;;;1.70;;
31306;SDS011;17935;51.120;13.132;2023-02-18T12:25:19;2.17;;;1.80;;
31306;SDS011;17935;51.120;13.132;2023-02-18T12:27:49;2.40;;;1.77;;
31306;SDS011;17935;51.120;13.132;2023-02-18T12:35:56;3.40;;;2.20;;
31306;SDS011;17935;51.120;13.132;2023-02-18T12:38:34;2.30;;;1.90;;
31306;SDS011;17935;51.120;13.132;2023-02-18T12:41:16;2.90;;;2.13;;
31306;SDS011;17935;51.120;13.132;2023-02-18T12:43:51;3.40;;;1.93;;
31306;SDS011;17935;51.120;13.132;2023-02-18T12:49:05;2.58;;;1.40;;
31306;SDS011;17935;51.120;13.132;2023-02-18T12:56:44;2.25;;;2.05;;
31306;SDS011;17935;51.120;13.132;2023-02-18T12:59:24;1.90;;;1.40;;
31306;SDS011;17935;51.120;13.132;2023-02-18T13:04:36;1.50;;;1.10;;
31306;SDS011;17935;51.120;13.132;2023-02-18T13:10:03;0.90;;;0.90;;
31306;SDS011;17935;51.120;13.132;2023-02-18T13:12:39;1.20;;;1.00;;
31306;SDS011;17935;51.120;13.132;2023-02-18T13:15:18;5.27;;;2.10;;
31306;SDS011;17935;51.120;13.132;2023-02-18T13:17:45;1.77;;;1.00;;
31306;SDS011;17935;51.120;13.132;2023-02-18T13:20:18;2.05;;;1.00;;
31306;SDS011;17935;51.120;13.132;2023-02-18T13:22:46;1.25;;;1.15;;
31306;SDS011;17935;51.120;13.132;2023-02-18T13:25:14;2.35;;;1.38;;
31306;SDS011;17935;51.120;13.132;2023-02-18T13:27:42;2.10;;;1.80;;
31306;SDS011;17935;51.120;13.132;2023-02-18T13:30:15;2.78;;;2.17;;
31306;SDS011;17935;51.120;13.132;2023-02-18T13:33:01;1.67;;;1.25;;
31306;SDS011;17935;51.120;13.132;2023-02-18T13:35:37;1.42;;;1.33;;
31306;SDS011;17935;51.120;13.132;2023-02-18T13:40:50;1.80;;;1.50;;
31306;SDS011;17935;51.120;13.132;2023-02-18T13:45:43;3.00;;;1.50;;
31306;SDS011;17935;51.120;13.132;2023-02-18T13:48:22;2.58;;;1.10;;
31306;SDS011;17935;51.120;13.132;2023-02-18T13:50:51;1.70;;;1.38;;
31306;SDS011;17935;51.120;13.132;2023-02-18T13:53:19;2.50;;;1.08;;
31306;SDS011;17935;51.120;13.132;2023-02-18T13:56:06;1.30;;;1.20;;
31306;SDS011;17935;51.120;13.132;2023-02-18T14:08:49;1.20;;;1.10;;
31306;SDS011;17935;51.120;13.132;2023-02-18T14:13:53;2.50;;;0.90;;
31306;SDS011;17935;51.120;13.132;2023-02-18T14:16:19;1.00;;;0.82;;
31306;SDS011;17935;51.120;13.132;2023-02-18T14:23:54;1.20;;;0.98;;
31306;SDS011;17935;51.120;13.132;2023-02-18T14:26:22;3.15;;;0.90;;
31306;SDS011;17935;51.120;13.132;2023-02-18T14:28:53;4.77;;;3.13;;
31306;SDS011;17935;51.120;13.132;2023-02-18T14:31:26;0.90;;;0.90;;
31306;SDS011;17935;51.120;13.132;2023-02-18T14:33:59;1.27;;;0.82;;
31306;SDS011;17935;51.120;13.132;2023-02-18T14:39:37;0.60;;;0.60;;
31306;SDS011;17935;51.120;13.132;2023-02-18T14:42:09;0.70;;;0.70;;
31306;SDS011;17935;51.120;13.132;2023-02-18T14:50:04;2.47;;;1.55;;
31306;SDS011;17935;51.120;13.132;2023-02-18T14:52:40;1.93;;;1.00;;
31306;SDS011;17935;51.120;13.132;2023-02-18T14:55:13;1.00;;;0.70;;
31306;SDS011;17935;51.120;13.132;2023-02-18T14:57:44;1.15;;;0.70;;
31306;SDS011;17935;51.120;13.132;2023-02-18T15:00:21;0.75;;;0.75;;
31306;SDS011;17935;51.120;13.132;2023-02-18T15:02:48;0.60;;;0.60;;
31306;SDS011;17935;51.120;13.132;2023-02-18T15:05:36;0.80;;;0.80;;
31306;SDS011;17935;51.120;13.132;2023-02-18T15:08:06;1.20;;;1.05;;
31306;SDS011;17935;51.120;13.132;2023-02-18T15:13:03;2.40;;;1.10;;
31306;SDS011;17935;51.120;13.132;2023-02-18T15:15:31;0.85;;;0.80;;
31306;SDS011;17935;51.120;13.132;2023-02-18T15:17:57;2.10;;;0.77;;
31306;SDS011;17935;51.120;13.132;2023-02-18T15:20:23;2.35;;;1.10;;
31306;SDS011;17935;51.120;13.132;2023-02-18T15:22:49;3.50;;;1.00;;
31306;SDS011;17935;51.120;13.132;2023-02-18T15:25:15;1.13;;;0.90;;
31306;SDS011;17935;51.120;13.132;2023-02-18T15:27:41;0.70;;;0.70;;
31306;SDS011;17935;51.120;13.132;2023-02-18T15:32:50;1.98;;;0.90;;
31306;SDS011;17935;51.120;13.132;2023-02-18T15:35:17;2.25;;;1.08;;
31306;SDS011;17935;51.120;13.132;2023-02-18T15:37:44;2.65;;;1.88;;
31306;SDS011;17935;51.120;13.132;2023-02-18T15:40:14;2.03;;;0.93;;
31306;SDS011;17935;51.120;13.132;2023-02-18T15:42:40;1.07;;;0.90;;
31306;SDS011;17935;51.120;13.132;2023-02-18T15:45:19;1.13;;;0.80;;
31306;SDS011;17935;51.120;13.132;2023-02-18T15:47:47;2.05;;;1.00;;
31306;SDS011;17935;51.120;13.132;2023-02-18T15:50:20;1.43;;;1.10;;
31306;SDS011;17935;51.120;13.132;2023-02-18T15:52:47;1.63;;;0.90;;
31306;SDS011;17935;51.120;13.132;2023-02-18T15:55:24;2.23;;;1.00;;
31306;SDS011;17935;51.120;13.132;2023-02-18T15:57:51;3.90;;;1.30;;
31306;SDS011;17935;51.120;13.132;2023-02-18T16:00:19;3.60;;;0.98;;
31306;SDS011;17935;51.120;13.132;2023-02-18T16:03:04;2.43;;;0.93;;
31306;SDS011;17935;51.120;13.132;2023-02-18T16:05:36;1.60;;;0.82;;
31306;SDS011;17935;51.120;13.132;2023-02-18T16:08:09;1.85;;;0.98;;
31306;SDS011;17935;51.120;13.132;2023-02-18T16:10:39;1.10;;;0.80;;
31306;SDS011;17935;51.120;13.132;2023-02-18T16:13:06;2.30;;;0.80;;
31306;SDS011;17935;51.120;13.132;2023-02-18T16:15:36;3.38;;;0.90;;
31306;SDS011;17935;51.120;13.132;2023-02-18T16:18:03;2.30;;;1.00;;
31306;SDS011;17935;51.120;13.132;2023-02-18T16:20:30;1.85;;;1.05;;